sensor_id;sensor_type;location;lat;lon;timestamp;P1;durP1;ratioP1;P2;durP2;ratioP2
9328;SDS011;4703;48.748;19.142;2023-11-19T00:01:08;13.70;;;9.27;;
9328;SDS011;4703;48.748;19.142;2023-11-19T00:03:35;13.27;;;9.87;;
9328;SDS011;4703;48.748;19.142;2023-11-19T00:06:02;13.27;;;8.93;;
9328;SDS011;4703;48.748;19.142;2023-11-19T00:08:30;16.90;;;10.13;;
9328;SDS011;4703;48.748;19.142;2023-11-19T00:10:57;17.97;;;10.80;;
9328;SDS011;4703;48.748;19.142;2023-11-19T00:13:24;16.67;;;10.40;;
9328;SDS011;4703;48.748;19.142;2023-11-19T00:15:52;12.10;;;9.13;;
9328;SDS011;4703;48.748;19.142;2023-11-19T00:18:19;17.03;;;11.00;;
9328;SDS011;4703;48.748;19.142;2023-11-19T00:20:47;14.17;;;9.67;;
9328;SDS011;4703;48.748;19.142;2023-11-19T00:23:13;16.17;;;9.50;;
9328;SDS011;4703;48.748;19.142;2023-11-19T00:25:41;13.97;;;9.80;;
9328;SDS011;4703;48.748;19.142;2023-11-19T00:28:08;13.77;;;8.77;;
9328;SDS011;4703;48.748;19.142;2023-11-19T00:30:35;12.57;;;8.60;;
9328;SDS011;4703;48.748;19.142;2023-11-19T00:33:02;15.87;;;9.63;;
9328;SDS011;4703;48.748;19.142;2023-11-19T00:35:29;11.57;;;8.43;;
9328;SDS011;4703;48.748;19.142;2023-11-19T00:37:58;14.90;;;9.57;;
9328;SDS011;4703;48.748;19.142;2023-11-19T00:40:25;14.87;;;9.57;;
9328;SDS011;4703;48.748;19.142;2023-11-19T00:42:52;13.50;;;8.63;;
9328;SDS011;4703;48.748;19.142;2023-11-19T00:45:19;13.50;;;9.97;;
9328;SDS011;4703;48.748;19.142;2023-11-19T00:47:46;12.20;;;8.53;;
9328;SDS011;4703;48.748;19.142;2023-11-19T00:50:13;13.00;;;9.27;;
9328;SDS011;4703;48.748;19.142;2023-11-19T00:52:40;13.53;;;10.27;;
9328;SDS011;4703;48.748;19.142;2023-11-19T00:55:08;13.20;;;9.50;;
9328;SDS011;4703;48.748;19.142;2023-11-19T00:57:35;15.10;;;9.47;;
9328;SDS011;4703;48.748;19.142;2023-11-19T01:00:03;14.90;;;10.30;;
9328;SDS011;4703;48.748;19.142;2023-11-19T01:02:46;13.20;;;9.77;;
9328;SDS011;4703;48.748;19.142;2023-11-19T01:05:16;10.43;;;8.43;;
9328;SDS011;4703;48.748;19.142;2023-11-19T01:07:47;11.10;;;9.10;;
9328;SDS011;4703;48.748;19.142;2023-11-19T01:10:15;14.93;;;9.40;;
9328;SDS011;4703;48.748;19.142;2023-11-19T01:12:42;14.80;;;10.90;;
9328;SDS011;4703;48.748;19.142;2023-11-19T01:15:09;14.60;;;9.63;;
9328;SDS011;4703;48.748;19.142;2023-11-19T01:17:37;10.77;;;8.50;;
9328;SDS011;4703;48.748;19.142;2023-11-19T01:20:04;12.30;;;9.53;;
9328;SDS011;4703;48.748;19.142;2023-11-19T01:22:33;15.73;;;9.57;;
9328;SDS011;4703;48.748;19.142;2023-11-19T01:25:00;13.77;;;9.10;;
9328;SDS011;4703;48.748;19.142;2023-11-19T01:27:27;16.17;;;10.20;;
9328;SDS011;4703;48.748;19.142;2023-11-19T01:29:54;11.47;;;8.60;;
9328;SDS011;4703;48.748;19.142;2023-11-19T01:32:21;16.17;;;9.77;;
9328;SDS011;4703;48.748;19.142;2023-11-19T01:34:50;13.17;;;9.07;;
9328;SDS011;4703;48.748;19.142;2023-11-19T01:37:17;12.50;;;8.20;;
9328;SDS011;4703;48.748;19.142;2023-11-19T01:39:44;15.00;;;8.90;;
9328;SDS011;4703;48.748;19.142;2023-11-19T01:42:24;13.60;;;9.00;;
9328;SDS011;4703;48.748;19.142;2023-11-19T01:44:58;16.67;;;10.63;;
9328;SDS011;4703;48.748;19.142;2023-11-19T01:47:26;18.47;;;10.70;;
9328;SDS011;4703;48.748;19.142;2023-11-19T01:49:54;12.83;;;9.37;;
9328;SDS011;4703;48.748;19.142;2023-11-19T01:52:23;12.10;;;9.30;;
9328;SDS011;4703;48.748;19.142;2023-11-19T01:54:52;18.13;;;10.17;;
9328;SDS011;4703;48.748;19.142;2023-11-19T01:57:21;15.97;;;10.50;;
9328;SDS011;4703;48.748;19.142;2023-11-19T01:59:50;11.60;;;9.23;;
9328;SDS011;4703;48.748;19.142;2023-11-19T02:02:18;15.53;;;11.77;;
9328;SDS011;4703;48.748;19.142;2023-11-19T02:04:49;21.97;;;11.47;;
9328;SDS011;4703;48.748;19.142;2023-11-19T02:07:17;16.70;;;11.50;;
9328;SDS011;4703;48.748;19.142;2023-11-19T02:09:45;17.70;;;10.80;;
9328;SDS011;4703;48.748;19.142;2023-11-19T02:12:11;17.53;;;10.97;;
9328;SDS011;4703;48.748;19.142;2023-11-19T02:14:39;16.90;;;11.63;;
9328;SDS011;4703;48.748;19.142;2023-11-19T02:17:06;17.73;;;12.20;;
9328;SDS011;4703;48.748;19.142;2023-11-19T02:19:33;17.53;;;10.87;;
9328;SDS011;4703;48.748;19.142;2023-11-19T02:22:00;19.10;;;11.27;;
9328;SDS011;4703;48.748;19.142;2023-11-19T02:24:27;16.63;;;10.07;;
9328;SDS011;4703;48.748;19.142;2023-11-19T02:26:59;16.00;;;11.07;;
9328;SDS011;4703;48.748;19.142;2023-11-19T02:29:42;18.47;;;11.70;;
9328;SDS011;4703;48.748;19.142;2023-11-19T02:32:10;19.63;;;10.90;;
9328;SDS011;4703;48.748;19.142;2023-11-19T02:34:39;19.60;;;11.73;;
9328;SDS011;4703;48.748;19.142;2023-11-19T02:37:06;15.43;;;11.83;;
9328;SDS011;4703;48.748;19.142;2023-11-19T02:39:34;16.73;;;10.67;;
9328;SDS011;4703;48.748;19.142;2023-11-19T02:42:01;17.43;;;11.13;;
9328;SDS011;4703;48.748;19.142;2023-11-19T02:44:28;15.93;;;10.40;;
9328;SDS011;4703;48.748;19.142;2023-11-19T02:46:56;19.07;;;10.10;;
9328;SDS011;4703;48.748;19.142;2023-11-19T02:49:25;16.60;;;10.93;;
9328;SDS011;4703;48.748;19.142;2023-11-19T02:51:52;13.03;;;9.40;;
9328;SDS011;4703;48.748;19.142;2023-11-19T02:54:19;13.03;;;8.90;;
9328;SDS011;4703;48.748;19.142;2023-11-19T02:56:47;15.43;;;10.17;;
9328;SDS011;4703;48.748;19.142;2023-11-19T02:59:21;14.07;;;9.17;;
9328;SDS011;4703;48.748;19.142;2023-11-19T03:01:54;14.67;;;9.97;;
9328;SDS011;4703;48.748;19.142;2023-11-19T03:04:21;11.30;;;7.50;;
9328;SDS011;4703;48.748;19.142;2023-11-19T03:06:49;18.03;;;9.73;;
9328;SDS011;4703;48.748;19.142;2023-11-19T03:09:16;17.33;;;10.10;;
9328;SDS011;4703;48.748;19.142;2023-11-19T03:11:43;13.67;;;9.73;;
9328;SDS011;4703;48.748;19.142;2023-11-19T03:14:10;16.40;;;10.30;;
9328;SDS011;4703;48.748;19.142;2023-11-19T03:16:37;13.30;;;9.20;;
9328;SDS011;4703;48.748;19.142;2023-11-19T03:19:04;12.13;;;9.87;;
9328;SDS011;4703;48.748;19.142;2023-11-19T03:21:31;15.70;;;9.43;;
9328;SDS011;4703;48.748;19.142;2023-11-19T03:23:58;16.10;;;9.37;;
9328;SDS011;4703;48.748;19.142;2023-11-19T03:26:26;14.97;;;10.10;;
9328;SDS011;4703;48.748;19.142;2023-11-19T03:28:54;16.30;;;9.40;;
9328;SDS011;4703;48.748;19.142;2023-11-19T03:31:22;13.70;;;8.27;;
9328;SDS011;4703;48.748;19.142;2023-11-19T03:33:49;14.87;;;10.10;;
9328;SDS011;4703;48.748;19.142;2023-11-19T03:36:16;15.30;;;10.10;;
9328;SDS011;4703;48.748;19.142;2023-11-19T03:38:43;12.20;;;9.27;;
9328;SDS011;4703;48.748;19.142;2023-11-19T03:41:14;14.67;;;9.00;;
9328;SDS011;4703;48.748;19.142;2023-11-19T03:43:41;18.93;;;10.57;;
9328;SDS011;4703;48.748;19.142;2023-11-19T03:46:20;11.60;;;9.00;;
9328;SDS011;4703;48.748;19.142;2023-11-19T03:48:48;19.37;;;9.77;;
9328;SDS011;4703;48.748;19.142;2023-11-19T03:51:16;17.43;;;10.10;;
9328;SDS011;4703;48.748;19.142;2023-11-19T03:53:47;18.33;;;10.00;;
9328;SDS011;4703;48.748;19.142;2023-11-19T03:56:14;18.63;;;10.13;;
9328;SDS011;4703;48.748;19.142;2023-11-19T03:58:41;13.63;;;9.60;;
9328;SDS011;4703;48.748;19.142;2023-11-19T04:01:11;16.13;;;9.23;;
9328;SDS011;4703;48.748;19.142;2023-11-19T04:03:45;15.73;;;10.37;;
9328;SDS011;4703;48.748;19.142;2023-11-19T04:06:15;14.83;;;10.07;;
9328;SDS011;4703;48.748;19.142;2023-11-19T04:08:42;16.23;;;10.20;;
9328;SDS011;4703;48.748;19.142;2023-11-19T04:11:09;14.13;;;9.83;;
9328;SDS011;4703;48.748;19.142;2023-11-19T04:13:36;12.90;;;9.40;;
9328;SDS011;4703;48.748;19.142;2023-11-19T04:16:04;15.77;;;11.13;;
9328;SDS011;4703;48.748;19.142;2023-11-19T04:18:31;12.33;;;9.63;;
9328;SDS011;4703;48.748;19.142;2023-11-19T04:20:58;17.67;;;10.90;;
9328;SDS011;4703;48.748;19.142;2023-11-19T04:23:25;13.43;;;10.83;;
9328;SDS011;4703;48.748;19.142;2023-11-19T04:25:52;17.27;;;9.90;;
9328;SDS011;4703;48.748;19.142;2023-11-19T04:28:19;15.40;;;10.67;;
9328;SDS011;4703;48.748;19.142;2023-11-19T04:30:46;17.23;;;10.83;;
9328;SDS011;4703;48.748;19.142;2023-11-19T04:33:13;16.30;;;11.30;;
9328;SDS011;4703;48.748;19.142;2023-11-19T04:35:41;16.10;;;10.53;;
9328;SDS011;4703;48.748;19.142;2023-11-19T04:38:08;11.67;;;9.20;;
9328;SDS011;4703;48.748;19.142;2023-11-19T04:40:35;17.33;;;12.03;;
9328;SDS011;4703;48.748;19.142;2023-11-19T04:43:02;13.07;;;9.80;;
9328;SDS011;4703;48.748;19.142;2023-11-19T04:45:29;22.87;;;12.07;;
9328;SDS011;4703;48.748;19.142;2023-11-19T04:47:56;16.73;;;10.30;;
9328;SDS011;4703;48.748;19.142;2023-11-19T04:50:23;19.00;;;11.30;;
9328;SDS011;4703;48.748;19.142;2023-11-19T04:52:52;19.20;;;10.73;;
9328;SDS011;4703;48.748;19.142;2023-11-19T04:55:20;17.13;;;11.20;;
9328;SDS011;4703;48.748;19.142;2023-11-19T04:57:47;16.47;;;10.30;;
9328;SDS011;4703;48.748;19.142;2023-11-19T05:00:14;16.90;;;11.17;;
9328;SDS011;4703;48.748;19.142;2023-11-19T05:02:43;15.37;;;10.10;;
9328;SDS011;4703;48.748;19.142;2023-11-19T05:05:10;15.60;;;11.57;;
9328;SDS011;4703;48.748;19.142;2023-11-19T05:07:38;15.47;;;10.13;;
9328;SDS011;4703;48.748;19.142;2023-11-19T05:10:05;15.80;;;10.60;;
9328;SDS011;4703;48.748;19.142;2023-11-19T05:12:33;14.30;;;10.80;;
9328;SDS011;4703;48.748;19.142;2023-11-19T05:15:00;15.13;;;11.47;;
9328;SDS011;4703;48.748;19.142;2023-11-19T05:17:27;16.37;;;10.90;;
9328;SDS011;4703;48.748;19.142;2023-11-19T05:19:54;15.43;;;10.63;;
9328;SDS011;4703;48.748;19.142;2023-11-19T05:22:21;18.13;;;11.43;;
9328;SDS011;4703;48.748;19.142;2023-11-19T05:24:49;18.30;;;11.40;;
9328;SDS011;4703;48.748;19.142;2023-11-19T05:27:16;22.00;;;12.50;;
9328;SDS011;4703;48.748;19.142;2023-11-19T05:29:43;18.10;;;11.13;;
9328;SDS011;4703;48.748;19.142;2023-11-19T05:32:10;16.93;;;11.40;;
9328;SDS011;4703;48.748;19.142;2023-11-19T05:34:37;21.07;;;12.53;;
9328;SDS011;4703;48.748;19.142;2023-11-19T05:37:17;17.27;;;10.83;;
9328;SDS011;4703;48.748;19.142;2023-11-19T05:39:45;16.20;;;11.60;;
9328;SDS011;4703;48.748;19.142;2023-11-19T05:42:12;16.60;;;12.70;;
9328;SDS011;4703;48.748;19.142;2023-11-19T05:44:39;14.53;;;11.30;;
9328;SDS011;4703;48.748;19.142;2023-11-19T05:47:07;19.20;;;12.57;;
9328;SDS011;4703;48.748;19.142;2023-11-19T05:49:34;19.33;;;11.93;;
9328;SDS011;4703;48.748;19.142;2023-11-19T05:52:01;23.87;;;12.50;;
9328;SDS011;4703;48.748;19.142;2023-11-19T05:54:29;21.30;;;12.17;;
9328;SDS011;4703;48.748;19.142;2023-11-19T05:56:57;18.00;;;11.07;;
9328;SDS011;4703;48.748;19.142;2023-11-19T05:59:24;16.03;;;11.13;;
9328;SDS011;4703;48.748;19.142;2023-11-19T06:01:52;18.40;;;11.73;;
9328;SDS011;4703;48.748;19.142;2023-11-19T06:04:19;18.17;;;11.40;;
9328;SDS011;4703;48.748;19.142;2023-11-19T06:06:46;21.30;;;11.40;;
9328;SDS011;4703;48.748;19.142;2023-11-19T06:09:13;18.93;;;11.43;;
9328;SDS011;4703;48.748;19.142;2023-11-19T06:11:40;15.70;;;11.70;;
9328;SDS011;4703;48.748;19.142;2023-11-19T06:14:07;17.03;;;11.43;;
9328;SDS011;4703;48.748;19.142;2023-11-19T06:16:34;19.17;;;10.57;;
9328;SDS011;4703;48.748;19.142;2023-11-19T06:19:03;12.07;;;9.63;;
9328;SDS011;4703;48.748;19.142;2023-11-19T06:21:30;19.63;;;11.40;;
9328;SDS011;4703;48.748;19.142;2023-11-19T06:23:58;16.97;;;11.23;;
9328;SDS011;4703;48.748;19.142;2023-11-19T06:26:25;16.87;;;11.50;;
9328;SDS011;4703;48.748;19.142;2023-11-19T06:28:53;17.60;;;11.50;;
9328;SDS011;4703;48.748;19.142;2023-11-19T06:31:20;21.33;;;12.13;;
9328;SDS011;4703;48.748;19.142;2023-11-19T06:33:47;22.17;;;12.90;;
9328;SDS011;4703;48.748;19.142;2023-11-19T06:36:14;20.97;;;13.03;;
9328;SDS011;4703;48.748;19.142;2023-11-19T06:38:43;18.47;;;11.10;;
9328;SDS011;4703;48.748;19.142;2023-11-19T06:41:10;15.97;;;10.70;;
9328;SDS011;4703;48.748;19.142;2023-11-19T06:43:37;18.60;;;12.30;;
9328;SDS011;4703;48.748;19.142;2023-11-19T06:46:14;18.43;;;11.30;;
9328;SDS011;4703;48.748;19.142;2023-11-19T06:48:44;16.33;;;11.13;;
9328;SDS011;4703;48.748;19.142;2023-11-19T06:51:12;17.80;;;11.60;;
9328;SDS011;4703;48.748;19.142;2023-11-19T06:53:39;15.67;;;11.10;;
9328;SDS011;4703;48.748;19.142;2023-11-19T06:56:17;12.93;;;9.40;;
9328;SDS011;4703;48.748;19.142;2023-11-19T06:58:48;13.27;;;9.60;;
9328;SDS011;4703;48.748;19.142;2023-11-19T07:01:16;13.37;;;10.17;;
9328;SDS011;4703;48.748;19.142;2023-11-19T07:03:47;19.77;;;11.00;;
9328;SDS011;4703;48.748;19.142;2023-11-19T07:06:15;22.37;;;10.40;;
9328;SDS011;4703;48.748;19.142;2023-11-19T07:08:42;15.90;;;9.73;;
9328;SDS011;4703;48.748;19.142;2023-11-19T07:11:13;13.40;;;9.57;;
9328;SDS011;4703;48.748;19.142;2023-11-19T07:13:42;16.60;;;11.00;;
9328;SDS011;4703;48.748;19.142;2023-11-19T07:16:09;13.30;;;10.53;;
9328;SDS011;4703;48.748;19.142;2023-11-19T07:18:36;14.10;;;9.50;;
9328;SDS011;4703;48.748;19.142;2023-11-19T07:21:04;17.40;;;8.83;;
9328;SDS011;4703;48.748;19.142;2023-11-19T07:23:31;10.17;;;7.77;;
9328;SDS011;4703;48.748;19.142;2023-11-19T07:26:00;12.10;;;9.20;;
9328;SDS011;4703;48.748;19.142;2023-11-19T07:28:28;13.27;;;9.80;;
9328;SDS011;4703;48.748;19.142;2023-11-19T07:30:55;13.97;;;10.00;;
9328;SDS011;4703;48.748;19.142;2023-11-19T07:33:22;14.83;;;10.20;;
9328;SDS011;4703;48.748;19.142;2023-11-19T07:35:50;14.30;;;10.40;;
9328;SDS011;4703;48.748;19.142;2023-11-19T07:38:17;15.20;;;9.50;;
9328;SDS011;4703;48.748;19.142;2023-11-19T07:40:44;11.30;;;8.33;;
9328;SDS011;4703;48.748;19.142;2023-11-19T07:43:22;13.03;;;8.00;;
9328;SDS011;4703;48.748;19.142;2023-11-19T07:45:49;11.20;;;9.40;;
9328;SDS011;4703;48.748;19.142;2023-11-19T07:48:16;17.67;;;9.30;;
9328;SDS011;4703;48.748;19.142;2023-11-19T07:50:49;12.97;;;9.13;;
9328;SDS011;4703;48.748;19.142;2023-11-19T07:53:19;11.83;;;8.70;;
9328;SDS011;4703;48.748;19.142;2023-11-19T07:55:46;12.93;;;8.17;;
9328;SDS011;4703;48.748;19.142;2023-11-19T07:58:13;18.47;;;10.67;;
9328;SDS011;4703;48.748;19.142;2023-11-19T08:00:40;15.47;;;9.53;;
9328;SDS011;4703;48.748;19.142;2023-11-19T08:03:07;16.80;;;8.83;;
9328;SDS011;4703;48.748;19.142;2023-11-19T08:05:35;13.10;;;9.73;;
9328;SDS011;4703;48.748;19.142;2023-11-19T08:08:02;12.57;;;8.80;;
9328;SDS011;4703;48.748;19.142;2023-11-19T08:10:30;17.30;;;9.00;;
9328;SDS011;4703;48.748;19.142;2023-11-19T08:12:56;11.70;;;8.33;;
9328;SDS011;4703;48.748;19.142;2023-11-19T08:15:23;12.37;;;8.47;;
9328;SDS011;4703;48.748;19.142;2023-11-19T08:17:53;12.43;;;8.73;;
9328;SDS011;4703;48.748;19.142;2023-11-19T08:20:20;12.93;;;8.00;;
9328;SDS011;4703;48.748;19.142;2023-11-19T08:22:48;13.23;;;8.40;;
9328;SDS011;4703;48.748;19.142;2023-11-19T08:25:15;14.53;;;8.80;;
9328;SDS011;4703;48.748;19.142;2023-11-19T08:27:42;11.27;;;8.60;;
9328;SDS011;4703;48.748;19.142;2023-11-19T08:30:09;14.20;;;9.03;;
9328;SDS011;4703;48.748;19.142;2023-11-19T08:32:37;33.27;;;20.63;;
9328;SDS011;4703;48.748;19.142;2023-11-19T08:35:04;12.97;;;9.93;;
9328;SDS011;4703;48.748;19.142;2023-11-19T08:37:32;12.33;;;7.70;;
9328;SDS011;4703;48.748;19.142;2023-11-19T08:39:59;13.30;;;8.20;;
9328;SDS011;4703;48.748;19.142;2023-11-19T08:42:27;13.47;;;8.07;;
9328;SDS011;4703;48.748;19.142;2023-11-19T08:44:54;10.17;;;8.10;;
9328;SDS011;4703;48.748;19.142;2023-11-19T08:47:21;8.67;;;7.67;;
9328;SDS011;4703;48.748;19.142;2023-11-19T08:49:51;13.57;;;7.40;;
9328;SDS011;4703;48.748;19.142;2023-11-19T08:52:21;12.90;;;7.67;;
9328;SDS011;4703;48.748;19.142;2023-11-19T08:54:49;11.17;;;8.17;;
9328;SDS011;4703;48.748;19.142;2023-11-19T08:57:16;11.83;;;8.30;;
9328;SDS011;4703;48.748;19.142;2023-11-19T08:59:43;9.80;;;8.10;;
9328;SDS011;4703;48.748;19.142;2023-11-19T09:02:12;10.00;;;7.77;;
9328;SDS011;4703;48.748;19.142;2023-11-19T09:04:39;10.20;;;7.10;;
9328;SDS011;4703;48.748;19.142;2023-11-19T09:07:08;8.70;;;7.70;;
9328;SDS011;4703;48.748;19.142;2023-11-19T09:09:36;17.10;;;9.73;;
9328;SDS011;4703;48.748;19.142;2023-11-19T09:12:03;14.37;;;8.83;;
9328;SDS011;4703;48.748;19.142;2023-11-19T09:14:30;12.87;;;9.07;;
9328;SDS011;4703;48.748;19.142;2023-11-19T09:16:57;16.20;;;9.73;;
9328;SDS011;4703;48.748;19.142;2023-11-19T09:19:24;10.27;;;7.80;;
9328;SDS011;4703;48.748;19.142;2023-11-19T09:21:53;14.23;;;8.60;;
9328;SDS011;4703;48.748;19.142;2023-11-19T09:24:20;11.47;;;8.07;;
9328;SDS011;4703;48.748;19.142;2023-11-19T09:26:47;8.67;;;7.33;;
9328;SDS011;4703;48.748;19.142;2023-11-19T09:29:14;11.70;;;7.70;;
9328;SDS011;4703;48.748;19.142;2023-11-19T09:31:41;11.47;;;7.93;;
9328;SDS011;4703;48.748;19.142;2023-11-19T09:34:08;10.47;;;6.97;;
9328;SDS011;4703;48.748;19.142;2023-11-19T09:36:35;8.93;;;6.97;;
9328;SDS011;4703;48.748;19.142;2023-11-19T09:39:02;8.40;;;6.53;;
9328;SDS011;4703;48.748;19.142;2023-11-19T09:41:30;9.00;;;6.83;;
9328;SDS011;4703;48.748;19.142;2023-11-19T09:43:59;9.23;;;7.40;;
9328;SDS011;4703;48.748;19.142;2023-11-19T09:46:26;8.43;;;5.63;;
9328;SDS011;4703;48.748;19.142;2023-11-19T09:48:56;8.77;;;5.87;;
9328;SDS011;4703;48.748;19.142;2023-11-19T09:51:25;8.43;;;7.00;;
9328;SDS011;4703;48.748;19.142;2023-11-19T09:53:52;8.80;;;5.93;;
9328;SDS011;4703;48.748;19.142;2023-11-19T09:56:19;7.07;;;5.30;;
9328;SDS011;4703;48.748;19.142;2023-11-19T09:58:47;9.03;;;5.70;;
9328;SDS011;4703;48.748;19.142;2023-11-19T10:01:14;8.97;;;6.30;;
9328;SDS011;4703;48.748;19.142;2023-11-19T10:03:44;7.77;;;6.07;;
9328;SDS011;4703;48.748;19.142;2023-11-19T10:06:14;10.20;;;6.90;;
9328;SDS011;4703;48.748;19.142;2023-11-19T10:08:42;8.87;;;6.10;;
9328;SDS011;4703;48.748;19.142;2023-11-19T10:11:10;8.90;;;7.57;;
9328;SDS011;4703;48.748;19.142;2023-11-19T10:13:38;9.57;;;7.17;;
9328;SDS011;4703;48.748;19.142;2023-11-19T10:16:09;7.97;;;7.17;;
9328;SDS011;4703;48.748;19.142;2023-11-19T10:18:49;9.50;;;7.50;;
9328;SDS011;4703;48.748;19.142;2023-11-19T10:21:19;9.77;;;7.97;;
9328;SDS011;4703;48.748;19.142;2023-11-19T10:23:50;10.27;;;8.03;;
9328;SDS011;4703;48.748;19.142;2023-11-19T10:26:23;8.37;;;6.30;;
9328;SDS011;4703;48.748;19.142;2023-11-19T10:28:50;9.33;;;7.80;;
9328;SDS011;4703;48.748;19.142;2023-11-19T10:31:18;8.70;;;7.10;;
9328;SDS011;4703;48.748;19.142;2023-11-19T10:33:51;15.13;;;8.80;;
9328;SDS011;4703;48.748;19.142;2023-11-19T10:36:19;12.93;;;8.10;;
9328;SDS011;4703;48.748;19.142;2023-11-19T10:38:53;11.73;;;7.93;;
9328;SDS011;4703;48.748;19.142;2023-11-19T10:41:30;12.50;;;8.13;;
9328;SDS011;4703;48.748;19.142;2023-11-19T10:43:58;13.03;;;8.50;;
9328;SDS011;4703;48.748;19.142;2023-11-19T10:46:39;9.73;;;7.70;;
9328;SDS011;4703;48.748;19.142;2023-11-19T10:49:08;13.57;;;8.03;;
9328;SDS011;4703;48.748;19.142;2023-11-19T10:51:37;9.67;;;6.67;;
9328;SDS011;4703;48.748;19.142;2023-11-19T10:54:12;13.33;;;9.30;;
9328;SDS011;4703;48.748;19.142;2023-11-19T10:56:41;12.13;;;8.60;;
9328;SDS011;4703;48.748;19.142;2023-11-19T10:59:11;9.17;;;7.77;;
9328;SDS011;4703;48.748;19.142;2023-11-19T11:01:43;11.47;;;8.00;;
9328;SDS011;4703;48.748;19.142;2023-11-19T11:04:15;13.30;;;9.27;;
9328;SDS011;4703;48.748;19.142;2023-11-19T11:06:49;12.20;;;9.17;;
9328;SDS011;4703;48.748;19.142;2023-11-19T11:09:17;11.83;;;7.87;;
9328;SDS011;4703;48.748;19.142;2023-11-19T11:11:46;10.00;;;7.50;;
9328;SDS011;4703;48.748;19.142;2023-11-19T11:14:14;8.13;;;7.07;;
9328;SDS011;4703;48.748;19.142;2023-11-19T11:16:42;11.70;;;8.20;;
9328;SDS011;4703;48.748;19.142;2023-11-19T11:19:10;10.23;;;7.90;;
9328;SDS011;4703;48.748;19.142;2023-11-19T11:21:39;11.80;;;8.80;;
9328;SDS011;4703;48.748;19.142;2023-11-19T11:36:03;16.27;;;9.93;;
9328;SDS011;4703;48.748;19.142;2023-11-19T11:38:47;13.40;;;8.60;;
9328;SDS011;4703;48.748;19.142;2023-11-19T11:41:23;13.23;;;9.70;;
9328;SDS011;4703;48.748;19.142;2023-11-19T11:43:55;13.83;;;10.17;;
9328;SDS011;4703;48.748;19.142;2023-11-19T11:48:59;16.10;;;11.93;;
9328;SDS011;4703;48.748;19.142;2023-11-19T11:54:14;16.10;;;11.97;;
9328;SDS011;4703;48.748;19.142;2023-11-19T11:59:49;16.40;;;11.50;;
9328;SDS011;4703;48.748;19.142;2023-11-19T12:02:18;14.87;;;11.27;;
9328;SDS011;4703;48.748;19.142;2023-11-19T12:04:49;13.57;;;10.70;;
9328;SDS011;4703;48.748;19.142;2023-11-19T12:07:20;16.43;;;10.47;;
9328;SDS011;4703;48.748;19.142;2023-11-19T12:09:53;14.17;;;8.77;;
9328;SDS011;4703;48.748;19.142;2023-11-19T12:12:35;19.37;;;11.10;;
9328;SDS011;4703;48.748;19.142;2023-11-19T12:15:05;15.77;;;9.60;;
9328;SDS011;4703;48.748;19.142;2023-11-19T12:17:37;16.43;;;10.97;;
9328;SDS011;4703;48.748;19.142;2023-11-19T12:20:12;14.63;;;10.40;;
9328;SDS011;4703;48.748;19.142;2023-11-19T12:22:40;15.70;;;10.23;;
9328;SDS011;4703;48.748;19.142;2023-11-19T12:25:09;17.90;;;9.77;;
9328;SDS011;4703;48.748;19.142;2023-11-19T12:27:44;14.20;;;9.80;;
9328;SDS011;4703;48.748;19.142;2023-11-19T12:30:12;14.83;;;10.47;;
9328;SDS011;4703;48.748;19.142;2023-11-19T12:32:47;12.70;;;9.33;;
9328;SDS011;4703;48.748;19.142;2023-11-19T12:35:15;14.60;;;10.10;;
9328;SDS011;4703;48.748;19.142;2023-11-19T12:37:43;14.23;;;10.13;;
9328;SDS011;4703;48.748;19.142;2023-11-19T12:42:44;19.60;;;11.50;;
9328;SDS011;4703;48.748;19.142;2023-11-19T12:45:12;16.07;;;10.30;;
9328;SDS011;4703;48.748;19.142;2023-11-19T12:47:40;12.77;;;8.80;;
9328;SDS011;4703;48.748;19.142;2023-11-19T12:50:07;11.73;;;10.30;;
9328;SDS011;4703;48.748;19.142;2023-11-19T12:52:36;14.50;;;10.30;;
9328;SDS011;4703;48.748;19.142;2023-11-19T12:55:04;14.70;;;10.50;;
9328;SDS011;4703;48.748;19.142;2023-11-19T12:57:53;15.63;;;10.27;;
9328;SDS011;4703;48.748;19.142;2023-11-19T13:00:21;12.73;;;10.07;;
9328;SDS011;4703;48.748;19.142;2023-11-19T13:02:50;15.73;;;9.63;;
9328;SDS011;4703;48.748;19.142;2023-11-19T13:08:03;14.77;;;9.73;;
9328;SDS011;4703;48.748;19.142;2023-11-19T13:10:53;14.20;;;10.37;;
9328;SDS011;4703;48.748;19.142;2023-11-19T13:13:20;14.00;;;10.07;;
9328;SDS011;4703;48.748;19.142;2023-11-19T13:15:47;14.97;;;11.00;;
9328;SDS011;4703;48.748;19.142;2023-11-19T13:18:16;17.43;;;12.67;;
9328;SDS011;4703;48.748;19.142;2023-11-19T13:20:43;16.90;;;11.90;;
9328;SDS011;4703;48.748;19.142;2023-11-19T13:23:10;15.87;;;10.10;;
9328;SDS011;4703;48.748;19.142;2023-11-19T13:25:37;13.93;;;9.20;;
9328;SDS011;4703;48.748;19.142;2023-11-19T13:28:04;16.10;;;11.07;;
9328;SDS011;4703;48.748;19.142;2023-11-19T13:30:32;17.00;;;11.60;;
9328;SDS011;4703;48.748;19.142;2023-11-19T13:32:59;16.50;;;10.67;;
9328;SDS011;4703;48.748;19.142;2023-11-19T13:35:27;17.10;;;10.97;;
9328;SDS011;4703;48.748;19.142;2023-11-19T13:37:54;17.60;;;11.00;;
9328;SDS011;4703;48.748;19.142;2023-11-19T13:40:21;19.07;;;11.63;;
9328;SDS011;4703;48.748;19.142;2023-11-19T13:42:50;16.67;;;10.50;;
9328;SDS011;4703;48.748;19.142;2023-11-19T13:45:18;15.23;;;10.90;;
9328;SDS011;4703;48.748;19.142;2023-11-19T13:47:47;16.53;;;9.73;;
9328;SDS011;4703;48.748;19.142;2023-11-19T13:50:14;14.60;;;11.20;;
9328;SDS011;4703;48.748;19.142;2023-11-19T13:52:44;13.23;;;9.73;;
9328;SDS011;4703;48.748;19.142;2023-11-19T13:55:13;16.03;;;10.50;;
9328;SDS011;4703;48.748;19.142;2023-11-19T13:57:41;17.50;;;10.90;;
9328;SDS011;4703;48.748;19.142;2023-11-19T14:00:10;17.40;;;11.67;;
9328;SDS011;4703;48.748;19.142;2023-11-19T14:02:40;14.83;;;10.67;;
9328;SDS011;4703;48.748;19.142;2023-11-19T14:05:08;13.10;;;9.07;;
9328;SDS011;4703;48.748;19.142;2023-11-19T14:07:37;14.70;;;9.53;;
9328;SDS011;4703;48.748;19.142;2023-11-19T14:10:06;11.87;;;9.43;;
9328;SDS011;4703;48.748;19.142;2023-11-19T14:12:35;16.40;;;10.67;;
9328;SDS011;4703;48.748;19.142;2023-11-19T14:15:06;17.30;;;12.30;;
9328;SDS011;4703;48.748;19.142;2023-11-19T14:17:43;15.17;;;9.77;;
9328;SDS011;4703;48.748;19.142;2023-11-19T14:20:10;14.53;;;10.97;;
9328;SDS011;4703;48.748;19.142;2023-11-19T14:22:42;15.37;;;10.70;;
9328;SDS011;4703;48.748;19.142;2023-11-19T14:25:10;16.17;;;11.90;;
9328;SDS011;4703;48.748;19.142;2023-11-19T14:27:38;15.87;;;11.00;;
9328;SDS011;4703;48.748;19.142;2023-11-19T14:30:08;16.00;;;11.37;;
9328;SDS011;4703;48.748;19.142;2023-11-19T14:32:40;13.97;;;10.87;;
9328;SDS011;4703;48.748;19.142;2023-11-19T14:35:10;16.27;;;10.70;;
9328;SDS011;4703;48.748;19.142;2023-11-19T14:37:37;19.50;;;11.10;;
9328;SDS011;4703;48.748;19.142;2023-11-19T14:40:05;13.93;;;10.60;;
9328;SDS011;4703;48.748;19.142;2023-11-19T14:42:35;18.73;;;11.30;;
9328;SDS011;4703;48.748;19.142;2023-11-19T14:45:03;15.00;;;11.60;;
9328;SDS011;4703;48.748;19.142;2023-11-19T14:47:32;18.53;;;9.87;;
9328;SDS011;4703;48.748;19.142;2023-11-19T14:49:59;16.10;;;11.10;;
9328;SDS011;4703;48.748;19.142;2023-11-19T14:52:26;14.40;;;9.10;;
9328;SDS011;4703;48.748;19.142;2023-11-19T14:54:53;13.87;;;9.80;;
9328;SDS011;4703;48.748;19.142;2023-11-19T14:57:22;11.30;;;8.33;;
9328;SDS011;4703;48.748;19.142;2023-11-19T14:59:50;12.50;;;9.07;;
9328;SDS011;4703;48.748;19.142;2023-11-19T15:02:17;12.30;;;8.53;;
9328;SDS011;4703;48.748;19.142;2023-11-19T15:04:44;8.70;;;7.50;;
9328;SDS011;4703;48.748;19.142;2023-11-19T15:07:11;9.33;;;7.30;;
9328;SDS011;4703;48.748;19.142;2023-11-19T15:09:38;9.60;;;7.17;;
9328;SDS011;4703;48.748;19.142;2023-11-19T15:12:07;11.13;;;7.90;;
9328;SDS011;4703;48.748;19.142;2023-11-19T15:14:35;12.20;;;7.53;;
9328;SDS011;4703;48.748;19.142;2023-11-19T15:17:02;11.07;;;7.80;;